Time;durP1;ratioP1;P1;durP2;ratioP2;P2;SDS_P1;SDS_P2;PMS_P1;PMS_P2;Temp;Humidity;BMP_temperature;BMP_pressure;BME280_temperature;BME280_humidity;BME280_pressure;Samples;Min_cycle;Max_cycle;Signal;HPM_P1;HPM_P2
2023/07/01 00:00:58;;;;;;;0.00;0.00;;;;;;;16.42;100.00;98653.16;7389863;19;20501;-80
2023/07/01 00:03:29;;;;;;;0.68;0.40;;;;;;;16.04;100.00;98646.34;7389695;19;20021;-80
2023/07/01 00:05:58;;;;;;;0.10;0.10;;;;;;;16.42;100.00;98652.41;7388966;19;20018;-80
2023/07/01 00:08:24;;;;;;;0.75;0.10;;;;;;;17.17;100.00;98641.94;7390048;19;20090;-80
2023/07/01 00:10:51;;;;;;;0.10;0.10;;;;;;;17.21;100.00;98631.09;7390263;19;20040;-80
2023/07/01 00:13:17;;;;;;;0.10;0.10;;;;;;;17.12;100.00;98633.66;7387545;19;20019;-81
2023/07/01 00:15:43;;;;;;;0.10;0.00;;;;;;;17.03;100.00;98637.69;7391135;19;20505;-81
2023/07/01 00:18:09;;;;;;;0.10;0.08;;;;;;;16.97;100.00;98636.31;7389009;19;20010;-81
2023/07/01 00:20:35;;;;;;;0.95;0.25;;;;;;;16.92;100.00;98637.22;7389948;19;20010;-81
2023/07/01 00:23:01;;;;;;;0.52;0.20;;;;;;;17.50;100.00;98631.88;7391221;19;20472;-80
2023/07/01 00:25:28;;;;;;;0.22;0.20;;;;;;;17.39;100.00;98637.78;7393290;19;20011;-81
2023/07/01 00:27:54;;;;;;;0.10;0.10;;;;;;;17.31;100.00;98642.59;7391221;19;20124;-80
2023/07/01 00:30:20;;;;;;;0.10;0.00;;;;;;;17.18;100.00;98634.25;7389238;19;20030;-80
2023/07/01 00:32:46;;;;;;;0.40;0.05;;;;;;;17.12;100.00;98639.28;7389065;19;20018;-81
2023/07/01 00:35:13;;;;;;;0.20;0.10;;;;;;;17.04;100.00;98639.22;7392512;19;20045;-81
2023/07/01 00:37:39;;;;;;;0.35;0.10;;;;;;;16.93;100.00;98635.91;7390032;19;20015;-81
2023/07/01 00:40:05;;;;;;;0.00;0.00;;;;;;;16.33;100.00;98638.84;7388890;19;20019;-81
2023/07/01 00:42:31;;;;;;;0.10;0.10;;;;;;;15.92;100.00;98645.03;7389053;19;20078;-81
2023/07/01 00:44:58;;;;;;;0.25;0.00;;;;;;;15.92;100.00;98637.38;7392138;19;20013;-81
2023/07/01 00:47:24;;;;;;;0.68;0.22;;;;;;;15.84;100.00;98636.53;7388191;19;20023;-81
2023/07/01 00:49:51;;;;;;;0.13;0.00;;;;;;;16.30;100.00;98634.28;7388519;19;20011;-81
2023/07/01 00:52:17;;;;;;;0.63;0.20;;;;;;;16.37;100.00;98631.56;7389723;19;20014;-81
2023/07/01 00:54:44;;;;;;;0.10;0.10;;;;;;;16.04;100.00;98632.31;7388677;19;20014;-81
2023/07/01 00:57:10;;;;;;;0.10;0.00;;;;;;;16.04;100.00;98626.69;7390417;19;20019;-81
2023/07/01 00:59:36;;;;;;;0.68;0.20;;;;;;;16.02;100.00;98634.91;7387040;19;20025;-81
2023/07/01 01:02:06;;;;;;;0.20;0.10;;;;;;;16.14;100.00;98627.72;7386446;19;20377;-81
2023/07/01 01:04:44;;;;;;;2.72;0.45;;;;;;;16.20;100.00;98627.63;7387326;19;20036;-81
2023/07/01 01:07:26;;;;;;;0.30;0.05;;;;;;;16.04;100.00;98637.91;7388002;19;20048;-81
2023/07/01 01:09:57;;;;;;;0.00;0.00;;;;;;;17.87;100.00;98616.53;7388754;19;20010;-81
2023/07/01 01:12:25;;;;;;;;;;;;;;;17.89;100.00;98611.09;7390855;19;20354;-81
2023/07/01 01:14:52;;;;;;;0.17;0.08;;;;;;;17.93;100.00;98620.69;7387971;19;19915;-81
2023/07/01 01:17:19;;;;;;;0.30;0.10;;;;;;;17.74;100.00;98617.41;7389252;19;20019;-81
2023/07/01 01:19:55;;;;;;;0.70;0.43;;;;;;;17.38;100.00;98617.34;7388699;19;20019;-81
2023/07/01 01:22:38;;;;;;;0.98;0.10;;;;;;;16.51;100.00;98632.31;7385707;19;20022;-81
2023/07/01 01:25:07;;;;;;;0.03;0.03;;;;;;;16.05;100.00;98642.22;7392248;19;20014;-81
2023/07/01 01:27:38;;;;;;;0.30;0.10;;;;;;;16.09;100.00;98637.03;7392718;19;20031;-82
2023/07/01 01:30:06;;;;;;;0.10;0.10;;;;;;;16.02;100.00;98632.09;7396843;19;20029;-82
2023/07/01 01:32:34;;;;;;;0.38;0.00;;;;;;;15.85;100.00;98631.69;7398859;19;20481;-82
2023/07/01 01:35:01;;;;;;;1.30;0.03;;;;;;;15.61;100.00;98634.72;7396537;19;20018;-81
2023/07/01 01:37:33;;;;;;;0.43;0.00;;;;;;;15.64;100.00;98639.22;7392129;19;20022;-81
2023/07/01 01:40:09;;;;;;;0.68;0.17;;;;;;;15.64;100.00;98636.41;7392569;19;20478;-82
2023/07/01 01:42:39;;;;;;;0.10;0.10;;;;;;;15.52;100.00;98635.13;7392388;19;20038;-81
2023/07/01 01:45:07;;;;;;;0.10;0.00;;;;;;;15.45;100.00;98638.56;7398668;19;20018;-82
2023/07/01 01:47:35;;;;;;;0.10;0.10;;;;;;;15.44;100.00;98639.88;7393695;19;20032;-82
2023/07/01 01:50:07;;;;;;;0.08;0.00;;;;;;;15.66;100.00;98628.97;7395187;19;20018;-81
2023/07/01 01:52:34;;;;;;;0.10;0.10;;;;;;;15.63;100.00;98623.69;7396144;19;20477;-81
2023/07/01 01:55:01;;;;;;;0.10;0.10;;;;;;;15.79;100.00;98619.78;7397255;19;20026;-81
2023/07/01 01:57:28;;;;;;;0.73;0.10;;;;;;;15.92;100.00;98620.53;7396399;19;20010;-81
2023/07/01 01:59:54;;;;;;;0.10;0.10;;;;;;;16.01;100.00;98624.94;7391894;19;20036;-81
2023/07/01 02:02:20;;;;;;;0.10;0.00;;;;;;;15.66;100.00;98628.97;7391648;19;20015;-81
2023/07/01 02:04:47;;;;;;;0.10;0.03;;;;;;;15.52;100.00;98619.06;7395461;19;20039;-81
2023/07/01 02:07:13;;;;;;;0.43;0.10;;;;;;;15.55;100.00;98628.47;7391640;19;20029;-80
2023/07/01 02:09:39;;;;;;;0.10;0.00;;;;;;;15.71;100.00;98624.56;7394766;19;20024;-81
2023/07/01 02:12:05;;;;;;;0.10;0.08;;;;;;;15.75;100.00;98624.97;7395379;19;20015;-81
2023/07/01 02:14:32;;;;;;;0.20;0.20;;;;;;;15.14;100.00;98624.06;7396487;19;20026;-81
2023/07/01 02:16:58;;;;;;;0.10;0.10;;;;;;;15.01;100.00;98618.41;7393167;19;20011;-81
2023/07/01 02:19:24;;;;;;;0.20;0.13;;;;;;;15.42;100.00;98628.41;7391292;19;20018;-81
2023/07/01 02:21:50;;;;;;;0.32;0.28;;;;;;;15.07;100.00;98624.69;7391242;19;20018;-81
2023/07/01 02:24:16;;;;;;;0.68;0.15;;;;;;;14.94;100.00;98629.53;7392640;19;20085;-81
2023/07/01 02:26:45;;;;;;;0.32;0.25;;;;;;;14.90;100.00;98632.63;7391063;19;20021;-81
2023/07/01 02:29:11;;;;;;;0.22;0.10;;;;;;;15.23;100.00;98630.53;7393353;19;20025;-81
2023/07/01 02:31:37;;;;;;;0.05;0.00;;;;;;;14.92;100.00;98632.09;7394658;19;20054;-80
2023/07/01 02:34:03;;;;;;;0.17;0.10;;;;;;;15.36;100.00;98630.53;7391796;19;20489;-81
2023/07/01 02:36:30;;;;;;;2.28;0.35;;;;;;;15.75;100.00;98642.59;7391600;19;20035;-81
2023/07/01 02:38:56;;;;;;;1.38;0.40;;;;;;;15.33;100.00;98626.03;7390741;19;20022;-82
2023/07/01 02:41:22;;;;;;;0.30;0.30;;;;;;;15.30;100.00;98636.28;7391832;19;20047;-82
2023/07/01 02:43:48;;;;;;;0.57;0.32;;;;;;;15.17;100.00;98628.59;7392819;19;20011;-82
2023/07/01 02:46:14;;;;;;;0.20;0.10;;;;;;;15.20;100.00;98627.50;7392701;19;20035;-81
2023/07/01 02:48:41;;;;;;;4.60;0.28;;;;;;;15.24;100.00;98623.63;7394760;19;20058;-82
2023/07/01 02:51:07;;;;;;;0.85;0.30;;;;;;;15.26;100.00;98623.84;7392985;19;20018;-82
2023/07/01 02:53:33;;;;;;;0.22;0.10;;;;;;;15.31;100.00;98614.59;7392346;19;20014;-82
2023/07/01 02:56:02;;;;;;;0.40;0.22;;;;;;;15.19;100.00;98617.59;7392672;19;20022;-82
2023/07/01 02:58:28;;;;;;;0.10;0.00;;;;;;;15.27;100.00;98620.50;7390416;19;20039;-81
2023/07/01 03:00:54;;;;;;;0.10;0.10;;;;;;;15.43;100.00;98622.28;7394470;19;20023;-82
2023/07/01 03:03:20;;;;;;;0.63;0.17;;;;;;;15.71;100.00;98627.34;7391861;19;20329;-82
2023/07/01 03:05:46;;;;;;;0.38;0.17;;;;;;;15.39;100.00;98618.25;7393908;19;20018;-81
2023/07/01 03:08:13;;;;;;;0.10;0.00;;;;;;;15.30;100.00;98627.09;7393829;19;20482;-82
2023/07/01 03:10:39;;;;;;;0.47;0.20;;;;;;;15.37;100.00;98618.81;7393965;19;20018;-82
2023/07/01 03:13:05;;;;;;;1.00;0.22;;;;;;;15.38;100.00;98625.16;7391627;19;20015;-82
2023/07/01 03:15:31;;;;;;;3.00;0.13;;;;;;;15.35;100.00;98620.63;7392363;19;20014;-81
2023/07/01 03:17:57;;;;;;;2.55;0.40;;;;;;;15.30;100.00;98629.91;7390567;19;20011;-81
2023/07/01 03:20:23;;;;;;;0.95;0.20;;;;;;;15.23;100.00;98625.69;7395153;19;20018;-81
2023/07/01 03:22:53;;;;;;;0.10;0.00;;;;;;;15.14;100.00;98621.25;7391551;19;20036;-82
2023/07/01 03:25:20;;;;;;;0.32;0.25;;;;;;;15.23;100.00;98630.53;7393721;19;20015;-81
2023/07/01 03:27:46;;;;;;;0.40;0.10;;;;;;;15.23;100.00;98625.69;7392055;19;20030;-81
2023/07/01 03:30:16;;;;;;;0.80;0.20;;;;;;;15.17;100.00;98634.22;7392218;19;20018;-81
2023/07/01 03:32:45;;;;;;;0.43;0.20;;;;;;;15.28;100.00;98624.06;7391953;19;20010;-81
2023/07/01 03:35:13;;;;;;;0.20;0.10;;;;;;;15.24;100.00;98632.81;7391151;19;20481;-81
2023/07/01 03:37:41;;;;;;;0.28;0.28;;;;;;;15.20;100.00;98635.91;7390011;19;20014;-81
2023/07/01 03:40:11;;;;;;;0.22;0.22;;;;;;;15.08;100.00;98631.81;7388775;19;20018;-81
2023/07/01 03:42:41;;;;;;;3.97;0.20;;;;;;;15.02;100.00;98622.75;7390700;19;20010;-81
2023/07/01 03:45:10;;;;;;;0.10;0.10;;;;;;;15.08;100.00;98626.19;7390546;19;20029;-82
2023/07/01 03:47:44;;;;;;;0.13;0.10;;;;;;;15.12;100.00;98631.47;7390033;19;20015;-81
2023/07/01 03:50:11;;;;;;;0.10;0.10;;;;;;;15.16;100.00;98627.06;7391227;19;20053;-82
2023/07/01 03:52:38;;;;;;;0.20;0.10;;;;;;;15.20;100.00;98624.69;7389695;19;20030;-82
2023/07/01 03:55:06;;;;;;;0.10;0.10;;;;;;;15.24;100.00;98620.84;7392000;19;20044;-81
2023/07/01 03:57:33;;;;;;;0.10;0.10;;;;;;;15.05;100.00;98627.25;7391455;19;20044;-82
2023/07/01 04:00:00;;;;;;;0.90;0.10;;;;;;;15.06;100.00;98628.03;7390868;19;20014;-82
2023/07/01 04:02:26;;;;;;;0.55;0.00;;;;;;;14.95;100.00;98617.00;7388729;19;20030;-82
2023/07/01 04:04:53;;;;;;;2.38;0.20;;;;;;;15.34;100.00;98624.72;7388341;19;20014;-82
2023/07/01 04:07:21;;;;;;;0.40;0.25;;;;;;;15.82;100.00;98613.88;7390809;19;20014;-82
2023/07/01 04:09:49;;;;;;;0.15;0.10;;;;;;;16.36;100.00;98601.19;7390148;19;20010;-82
2023/07/01 04:12:18;;;;;;;0.08;0.00;;;;;;;16.54;100.00;98608.75;7391934;19;20019;-82
2023/07/01 04:14:44;;;;;;;0.10;0.00;;;;;;;16.73;100.00;98605.72;7390649;19;20014;-82
2023/07/01 04:17:11;;;;;;;0.55;0.15;;;;;;;16.70;100.00;98601.94;7389903;19;20019;-82
2023/07/01 04:19:37;;;;;;;0.10;0.10;;;;;;;16.52;100.00;98606.47;7392346;19;20022;-82
2023/07/01 04:22:03;;;;;;;0.25;0.17;;;;;;;16.62;100.00;98610.31;7389249;19;20082;-82
2023/07/01 04:24:30;;;;;;;0.10;0.08;;;;;;;16.99;100.00;98614.78;7387716;19;20007;-80
2023/07/01 04:26:56;;;;;;;0.30;0.20;;;;;;;16.98;100.00;98606.91;7389226;19;20051;-80
2023/07/01 04:29:22;;;;;;;1.65;0.35;;;;;;;17.15;100.00;98607.22;7391363;19;20018;-81
2023/07/01 04:31:48;;;;;;;0.73;0.30;;;;;;;17.33;100.00;98614.66;7392382;19;20048;-82
2023/07/01 04:34:14;;;;;;;0.10;0.10;;;;;;;16.44;100.00;98604.84;7388537;19;20014;-82
2023/07/01 04:36:40;;;;;;;0.10;0.10;;;;;;;16.48;100.00;98605.28;7387412;19;20070;-81
2023/07/01 04:39:07;;;;;;;2.58;0.25;;;;;;;16.83;100.00;98606.78;7388537;19;20022;-81
2023/07/01 04:41:33;;;;;;;0.20;0.10;;;;;;;16.85;100.00;98624.59;7388104;19;20053;-81
2023/07/01 04:43:59;;;;;;;0.30;0.28;;;;;;;16.75;100.00;98620.00;7391961;19;20480;-81
2023/07/01 04:46:25;;;;;;;6.97;0.30;;;;;;;16.66;100.00;98632.47;7386963;19;20548;-81
2023/07/01 04:48:51;;;;;;;1.30;0.38;;;;;;;16.44;100.00;98625.28;7389472;19;20527;-82
2023/07/01 04:51:17;;;;;;;0.17;0.00;;;;;;;16.76;100.00;98635.56;7390591;19;20398;-81
2023/07/01 04:53:43;;;;;;;0.10;0.10;;;;;;;16.72;100.00;98629.53;7389869;19;20029;-82
2023/07/01 04:56:10;;;;;;;0.10;0.10;;;;;;;17.03;100.00;98628.50;7391140;19;20018;-81
2023/07/01 04:58:36;;;;;;;0.10;0.00;;;;;;;16.38;100.00;98624.66;7388956;19;20021;-81
2023/07/01 05:01:02;;;;;;;0.30;0.30;;;;;;;15.69;100.00;98638.38;7397858;19;20078;-82
2023/07/01 05:03:28;;;;;;;0.30;0.10;;;;;;;15.66;100.00;98654.22;7398624;19;20022;-81
2023/07/01 05:05:54;;;;;;;5.03;0.25;;;;;;;15.06;100.00;98656.81;7394835;19;20015;-82
2023/07/01 05:08:20;;;;;;;0.10;0.10;;;;;;;14.99;100.00;98657.44;7401397;19;20046;-82
2023/07/01 05:10:47;;;;;;;0.30;0.10;;;;;;;15.05;100.00;98660.19;7398093;19;20370;-81
2023/07/01 05:13:13;;;;;;;0.63;0.45;;;;;;;14.98;100.00;98655.94;7396030;19;20366;-81
2023/07/01 05:15:40;;;;;;;4.88;0.30;;;;;;;15.20;100.00;98660.44;7396276;19;20011;-82
2023/07/01 05:18:07;;;;;;;0.10;0.10;;;;;;;15.29;100.00;98662.06;7393328;19;20014;-82
2023/07/01 05:20:33;;;;;;;0.05;0.05;;;;;;;15.58;100.00;98661.03;7400420;19;20055;-82
2023/07/01 05:22:59;;;;;;;0.08;0.00;;;;;;;15.42;100.00;98662.09;7395218;19;20397;-82
2023/07/01 05:25:25;;;;;;;0.55;0.10;;;;;;;15.19;100.00;98664.50;7395479;19;20035;-82
2023/07/01 05:27:51;;;;;;;0.13;0.13;;;;;;;15.47;100.00;98672.47;7393253;19;20002;-82
2023/07/01 05:30:18;;;;;;;0.10;0.10;;;;;;;15.24;100.00;98665.72;7396178;19;20031;-82
2023/07/01 05:32:44;;;;;;;0.30;0.30;;;;;;;15.11;100.00;98670.00;7395213;19;20019;-82
2023/07/01 05:35:10;;;;;;;0.30;0.20;;;;;;;15.37;100.00;98668.53;7395028;19;20014;-82
2023/07/01 05:37:36;;;;;;;0.38;0.17;;;;;;;15.24;100.00;98682.53;7392155;19;20423;-82
2023/07/01 05:40:02;;;;;;;12.80;0.65;;;;;;;15.05;100.00;98688.94;7394354;19;20021;-82
2023/07/01 05:42:29;;;;;;;0.10;0.10;;;;;;;15.25;100.00;98673.59;7392780;19;20018;-82
2023/07/01 05:44:55;;;;;;;0.32;0.20;;;;;;;15.13;100.00;98684.25;7392163;19;20018;-82
2023/07/01 05:47:21;;;;;;;0.13;0.10;;;;;;;15.05;100.00;98688.22;7392017;19;20014;-82
2023/07/01 05:49:47;;;;;;;1.30;0.13;;;;;;;15.20;100.00;98689.22;7394460;19;20364;-82
2023/07/01 05:52:13;;;;;;;0.10;0.10;;;;;;;15.30;100.00;98691.59;7394936;19;20014;-82
2023/07/01 05:54:39;;;;;;;0.20;0.10;;;;;;;15.06;100.00;98679.25;7394208;19;20449;-82
2023/07/01 05:57:06;;;;;;;0.10;0.03;;;;;;;14.82;100.00;98692.63;7394610;19;20046;-82
2023/07/01 05:59:32;;;;;;;5.15;0.65;;;;;;;15.95;100.00;98677.66;7393334;19;20015;-82
2023/07/01 06:01:58;;;;;;;0.10;0.00;;;;;;;15.88;100.00;98686.75;7396374;19;20465;-82
2023/07/01 06:04:24;;;;;;;0.38;0.05;;;;;;;15.35;100.00;98677.50;7391345;19;20019;-82
2023/07/01 06:06:50;;;;;;;0.20;0.20;;;;;;;15.14;100.00;98691.34;7391896;19;20074;-82
2023/07/01 06:09:16;;;;;;;0.30;0.10;;;;;;;15.37;100.00;98700.16;7393720;19;20015;-82
2023/07/01 06:11:42;;;;;;;1.23;0.43;;;;;;;15.17;100.00;98692.34;7398431;19;20015;-82
2023/07/01 06:14:08;;;;;;;0.10;0.00;;;;;;;15.78;100.00;98694.84;7394208;19;20014;-81
2023/07/01 06:16:35;;;;;;;0.10;0.10;;;;;;;15.39;100.00;98688.41;7392693;19;20026;-82
2023/07/01 06:19:01;;;;;;;0.10;0.10;;;;;;;14.90;100.00;98688.69;7391313;19;20015;-81
2023/07/01 06:21:27;;;;;;;0.68;0.28;;;;;;;15.22;100.00;98696.34;7397036;19;20018;-81
2023/07/01 06:23:55;;;;;;;0.28;0.10;;;;;;;14.51;100.00;98707.38;7394952;19;20077;-82
2023/07/01 06:26:22;;;;;;;0.10;0.00;;;;;;;14.65;100.00;98709.72;7393230;19;20070;-82
2023/07/01 06:28:48;;;;;;;0.10;0.00;;;;;;;16.29;100.00;98698.16;7392732;19;20018;-81
2023/07/01 06:31:14;;;;;;;0.32;0.30;;;;;;;15.15;100.00;98687.28;7396372;19;20460;-81
2023/07/01 06:33:40;;;;;;;3.13;0.13;;;;;;;15.06;100.00;98700.94;7393644;19;20372;-81
2023/07/01 06:36:07;;;;;;;0.10;0.00;;;;;;;15.05;100.00;98717.00;7393803;19;20500;-82
2023/07/01 06:38:33;;;;;;;0.05;0.05;;;;;;;15.05;100.00;98694.56;7391218;19;20007;-82
2023/07/01 06:40:59;;;;;;;0.10;0.00;;;;;;;14.95;100.00;98703.91;7394956;19;20018;-82
2023/07/01 06:43:26;;;;;;;0.10;0.10;;;;;;;14.98;100.00;98711.25;7393012;19;20010;-82
2023/07/01 06:45:52;;;;;;;0.10;0.08;;;;;;;15.03;100.00;98716.78;7394520;19;20454;-81
2023/07/01 06:48:18;;;;;;;0.00;0.00;;;;;;;15.51;100.00;98706.56;7392437;19;20019;-82
2023/07/01 06:50:44;;;;;;;0.00;0.00;;;;;;;16.17;100.00;98696.88;7396240;19;20038;-81
2023/07/01 06:53:10;;;;;;;0.00;0.00;;;;;;;15.85;100.00;98702.59;7393636;19;20019;-81
2023/07/01 06:55:36;;;;;;;0.30;0.10;;;;;;;15.84;100.00;98706.72;7392693;19;20018;-81
2023/07/01 06:58:02;;;;;;;0.25;0.13;;;;;;;15.80;100.00;98700.69;7394901;19;20022;-80
2023/07/01 07:00:30;;;;;;;0.63;0.00;;;;;;;16.37;100.00;98701.81;7393289;19;20014;-80
2023/07/01 07:02:56;;;;;;;0.08;0.08;;;;;;;15.99;100.00;98708.97;7393906;19;20018;-80
2023/07/01 07:05:23;;;;;;;0.03;0.03;;;;;;;16.29;100.00;98706.59;7392969;19;20014;-80
2023/07/01 07:07:49;;;;;;;0.10;0.00;;;;;;;15.94;100.00;98709.84;7391500;19;20018;-80
2023/07/01 07:10:15;;;;;;;0.00;0.00;;;;;;;16.72;100.00;98697.75;7391735;19;20393;-81
2023/07/01 07:12:41;;;;;;;0.22;0.10;;;;;;;16.16;100.00;98700.97;7391263;19;20010;-80
2023/07/01 07:15:07;;;;;;;0.90;0.00;;;;;;;16.16;100.00;98708.63;7393462;19;20022;-79
2023/07/01 07:17:34;;;;;;;0.38;0.25;;;;;;;16.20;100.00;98703.47;7391143;19;20047;-80
2023/07/01 07:20:01;;;;;;;0.32;0.00;;;;;;;17.15;100.00;98698.00;7391791;19;20094;-80
2023/07/01 07:22:27;;;;;;;0.10;0.00;;;;;;;16.89;100.00;98686.13;7388132;19;20039;-80
2023/07/01 07:24:53;;;;;;;0.05;0.00;;;;;;;16.74;100.00;98692.34;7389578;19;20015;-80
2023/07/01 07:27:19;;;;;;;2.38;0.20;;;;;;;17.88;100.00;98692.03;7391079;19;20048;-80
2023/07/01 07:29:45;;;;;;;0.20;0.10;;;;;;;17.17;100.00;98694.66;7392530;19;20014;-80
2023/07/01 07:32:11;;;;;;;0.00;0.00;;;;;;;17.06;100.00;98703.34;7395840;19;20018;-80
2023/07/01 07:34:38;;;;;;;0.00;0.00;;;;;;;16.76;100.00;98701.00;7391669;19;20049;-80
2023/07/01 07:37:05;;;;;;;2.90;0.90;;;;;;;17.26;100.00;98699.81;7390143;19;20011;-80
2023/07/01 07:39:31;;;;;;;0.65;0.10;;;;;;;16.94;100.00;98693.66;7391295;19;20074;-80
2023/07/01 07:41:57;;;;;;;5.18;0.90;;;;;;;17.29;100.00;98698.69;7394861;19;20018;-80
2023/07/01 07:44:24;;;;;;;0.00;0.00;;;;;;;16.85;100.00;98691.34;7390401;19;20378;-79
2023/07/01 07:46:50;;;;;;;1.50;0.40;;;;;;;17.41;100.00;98705.56;7388495;19;20429;-80
2023/07/01 07:49:16;;;;;;;0.50;0.20;;;;;;;17.18;100.00;98705.34;7390929;19;20366;-80
2023/07/01 07:51:43;;;;;;;0.10;0.00;;;;;;;17.60;100.00;98700.47;7395351;19;20044;-80
2023/07/01 07:54:09;;;;;;;0.38;0.20;;;;;;;17.55;100.00;98709.06;7392432;19;20021;-80
2023/07/01 07:56:35;;;;;;;0.45;0.25;;;;;;;17.73;100.00;98714.47;7390091;19;20049;-79
2023/07/01 07:59:01;;;;;;;0.00;0.00;;;;;;;17.57;100.00;98707.22;7391166;19;20021;-80
2023/07/01 08:01:27;;;;;;;0.03;0.00;;;;;;;18.46;100.00;98705.53;7394826;19;20342;-80
2023/07/01 08:03:53;;;;;;;0.50;0.20;;;;;;;18.14;100.00;98705.91;7389680;19;20360;-79
2023/07/01 08:06:19;;;;;;;0.00;0.00;;;;;;;17.80;100.00;98713.75;7389043;19;20034;-79
2023/07/01 08:08:45;;;;;;;0.20;0.20;;;;;;;18.32;100.00;98711.81;7392136;19;20426;-79
2023/07/01 08:11:12;;;;;;;1.73;0.08;;;;;;;17.86;100.00;98711.56;7394282;19;20044;-79
2023/07/01 08:13:38;;;;;;;0.05;0.03;;;;;;;18.15;100.00;98718.69;7390520;19;20018;-80
2023/07/01 08:16:05;;;;;;;0.00;0.00;;;;;;;18.36;100.00;98717.84;7390658;19;20050;-79
2023/07/01 08:18:31;;;;;;;0.20;0.00;;;;;;;18.35;100.00;98719.16;7389773;19;20466;-79
2023/07/01 08:20:57;;;;;;;0.80;0.00;;;;;;;18.84;100.00;98723.31;7392578;19;20018;-79
2023/07/01 08:23:23;;;;;;;1.20;0.20;;;;;;;19.19;100.00;98718.16;7389384;19;20014;-79
2023/07/01 08:25:49;;;;;;;0.00;0.00;;;;;;;18.61;100.00;98725.31;7390270;19;20390;-79
2023/07/01 08:28:15;;;;;;;1.98;0.25;;;;;;;19.59;100.00;98728.38;7390321;19;20019;-79
2023/07/01 08:30:42;;;;;;;0.08;0.00;;;;;;;18.58;100.00;98734.16;7392458;19;20050;-79
2023/07/01 08:33:08;;;;;;;0.63;0.20;;;;;;;19.02;100.00;98721.47;7392131;19;20105;-79
2023/07/01 08:35:34;;;;;;;0.00;0.00;;;;;;;18.23;100.00;98737.69;7398512;19;20031;-79
2023/07/01 08:38:00;;;;;;;3.60;0.10;;;;;;;17.88;100.00;98720.22;7397167;19;20021;-79
2023/07/01 08:40:26;;;;;;;0.57;0.00;;;;;;;17.93;100.00;98733.38;7402650;19;20018;-79
2023/07/01 08:43:00;;;;;;;0.03;0.00;;;;;;;18.46;100.00;98732.94;7396941;19;20047;-79
2023/07/01 08:45:29;;;;;;;0.08;0.00;;;;;;;18.22;100.00;98725.66;7397522;19;20025;-79
2023/07/01 08:47:58;;;;;;;0.00;0.00;;;;;;;18.01;100.00;98733.44;7395687;19;20018;-79
2023/07/01 08:50:28;;;;;;;0.30;0.20;;;;;;;18.09;100.00;98740.63;7397399;19;20010;-79
2023/07/01 08:53:02;;;;;;;0.40;0.10;;;;;;;19.02;100.00;98741.25;7398518;19;20018;-79
2023/07/01 08:55:30;;;;;;;0.00;0.00;;;;;;;18.47;100.00;98732.41;7396394;19;20047;-79
2023/07/01 08:57:57;;;;;;;1.35;0.20;;;;;;;18.16;100.00;98745.56;7398997;19;20014;-78
2023/07/01 09:00:23;;;;;;;0.00;0.00;;;;;;;18.08;100.00;98744.75;7395346;19;20078;-79
2023/07/01 09:02:49;;;;;;;0.30;0.10;;;;;;;18.30;100.00;98742.63;7394604;19;20018;-80
2023/07/01 09:05:15;;;;;;;1.65;0.20;;;;;;;18.55;100.00;98746.53;7395182;19;20023;-79
2023/07/01 09:07:41;;;;;;;0.73;0.10;;;;;;;18.69;100.00;98743.00;7392454;19;20015;-79
2023/07/01 09:10:10;;;;;;;0.10;0.10;;;;;;;18.88;100.00;98734.25;7395811;19;20473;-79
2023/07/01 09:12:36;;;;;;;0.10;0.00;;;;;;;19.14;100.00;98741.66;7398063;19;20022;-79
2023/07/01 09:15:07;;;;;;;0.10;0.00;;;;;;;19.40;100.00;98736.47;7397347;19;20024;-79
2023/07/01 09:17:36;;;;;;;0.10;0.00;;;;;;;19.33;100.00;98740.00;7395147;19;20018;-79
2023/07/01 09:20:12;;;;;;;0.45;0.20;;;;;;;19.21;100.00;98743.75;7394651;19;20022;-77
2023/07/01 09:22:43;;;;;;;0.00;0.00;;;;;;;18.92;100.00;98741.03;7394717;19;20051;-79
2023/07/01 09:25:24;;;;;;;0.15;0.15;;;;;;;18.76;100.00;98738.72;7394586;19;20014;-78
2023/07/01 09:27:50;;;;;;;0.00;0.00;;;;;;;18.69;100.00;98748.66;7394790;19;20141;-78
2023/07/01 09:30:19;;;;;;;0.20;0.20;;;;;;;18.63;100.00;98750.88;7397067;19;20018;-79
2023/07/01 09:32:46;;;;;;;0.00;0.00;;;;;;;18.89;100.00;98747.03;7396132;19;20022;-79
2023/07/01 09:35:12;;;;;;;0.68;0.15;;;;;;;19.05;100.00;98748.59;7396500;19;20011;-79
2023/07/01 09:37:38;;;;;;;1.35;0.20;;;;;;;19.17;100.00;98741.28;7394114;19;20022;-79
2023/07/01 09:40:19;;;;;;;0.00;0.00;;;;;;;20.37;100.00;98742.59;7393950;19;20097;-78
2023/07/01 09:42:52;;;;;;;;;;;;;;;19.67;100.00;98746.06;7394029;19;20357;-79
2023/07/01 09:45:18;;;;;;;0.00;0.00;;;;;;;20.06;100.00;98741.13;7392947;19;19947;-79
2023/07/01 09:47:46;;;;;;;0.10;0.10;;;;;;;20.37;100.00;98728.44;7394790;19;20015;-79
2023/07/01 09:50:28;;;;;;;0.10;0.00;;;;;;;20.47;100.00;98732.19;7396407;19;20101;-79
2023/07/01 09:52:56;;;;;;;0.00;0.00;;;;;;;20.54;100.00;98737.06;7396150;19;20026;-79
2023/07/01 09:55:23;;;;;;;0.00;0.00;;;;;;;20.94;100.00;98726.50;7398158;19;20039;-79
2023/07/01 09:57:50;;;;;;;0.00;0.00;;;;;;;20.50;100.00;98744.44;7397295;19;20021;-78
2023/07/01 10:00:16;;;;;;;0.75;0.00;;;;;;;20.19;100.00;98744.50;7393191;19;20021;-78
2023/07/01 10:02:47;;;;;;;0.00;0.00;;;;;;;21.18;100.00;98732.81;7393119;19;20018;-78
2023/07/01 10:05:14;;;;;;;0.00;0.00;;;;;;;21.37;100.00;98744.38;7392610;19;20018;-78
2023/07/01 10:07:41;;;;;;;1.08;0.00;;;;;;;21.32;100.00;98742.53;7393109;19;20015;-78
2023/07/01 10:10:12;;;;;;;0.00;0.00;;;;;;;21.11;100.00;98745.69;7395728;19;20399;-78
2023/07/01 10:12:41;;;;;;;0.98;0.00;;;;;;;22.20;100.00;98743.72;7396065;19;20098;-78
2023/07/01 10:15:10;;;;;;;0.20;0.00;;;;;;;20.69;100.00;98751.16;7396020;19;20116;-78
2023/07/01 10:17:47;;;;;;;0.10;0.05;;;;;;;20.46;100.00;98753.31;7393110;19;20025;-78
2023/07/01 10:20:27;;;;;;;0.00;0.00;;;;;;;20.02;100.00;98763.34;7396445;19;20045;-78
2023/07/01 10:22:58;;;;;;;0.25;0.00;;;;;;;20.09;100.00;98762.59;7393360;19;20015;-78
2023/07/01 10:25:42;;;;;;;0.00;0.00;;;;;;;19.67;100.00;98763.00;7393506;19;20048;-78
2023/07/01 10:28:14;;;;;;;0.40;0.20;;;;;;;19.29;100.00;98756.56;7393024;19;20366;-78
2023/07/01 10:30:46;;;;;;;0.30;0.10;;;;;;;19.16;100.00;98759.53;7392576;19;20018;-78
2023/07/01 10:33:28;;;;;;;0.10;0.00;;;;;;;19.30;100.00;98758.03;7392542;19;20486;-78
2023/07/01 10:36:04;;;;;;;8.10;0.68;;;;;;;20.31;100.00;98750.53;7393028;19;20035;-78
2023/07/01 10:38:31;;;;;;;3.72;0.20;;;;;;;20.50;100.00;98759.34;7393490;19;20026;-78
2023/07/01 10:40:58;;;;;;;1.42;0.10;;;;;;;20.34;100.00;98767.09;7394651;19;20018;-78
2023/07/01 10:43:32;;;;;;;0.57;0.10;;;;;;;19.86;100.00;98773.19;7395939;19;20014;-78
2023/07/01 10:46:24;;;;;;;0.20;0.00;;;;;;;21.80;100.00;98766.53;7393834;19;20102;-78
2023/07/01 10:49:11;;;;;;;0.15;0.00;;;;;;;21.13;100.00;98769.28;7394581;19;20051;-78
2023/07/01 10:51:46;;;;;;;0.00;0.00;;;;;;;21.99;100.00;98778.13;7394650;19;20013;-77
2023/07/01 10:54:12;;;;;;;0.00;0.00;;;;;;;22.48;100.00;98775.16;7394147;19;20021;-78
2023/07/01 10:57:00;;;;;;;0.00;0.00;;;;;;;22.63;100.00;98777.84;7394487;19;20030;-78
2023/07/01 10:59:26;;;;;;;0.20;0.10;;;;;;;23.20;100.00;98785.28;7393783;19;20047;-78
2023/07/01 11:01:59;;;;;;;2.55;0.10;;;;;;;23.15;100.00;98783.47;7393407;19;20018;-78
2023/07/01 11:04:51;;;;;;;0.63;0.10;;;;;;;22.86;100.00;98788.19;7394105;19;20006;-78
2023/07/01 11:07:24;;;;;;;0.20;0.15;;;;;;;22.45;100.00;98781.25;7392197;19;20014;-78
2023/07/01 11:09:52;;;;;;;0.10;0.00;;;;;;;22.51;100.00;98779.69;7392263;19;20026;-77
2023/07/01 11:12:18;;;;;;;0.40;0.00;;;;;;;21.86;100.00;98786.91;7393818;19;20040;-78
2023/07/01 11:14:44;;;;;;;0.00;0.00;;;;;;;21.67;100.00;98783.84;7393676;19;20023;-77
2023/07/01 11:17:12;;;;;;;0.00;0.00;;;;;;;21.55;100.00;98785.63;7392569;19;20015;-78
2023/07/01 11:19:38;;;;;;;0.00;0.00;;;;;;;20.24;100.00;98796.53;7391352;19;20094;-77
2023/07/01 11:22:05;;;;;;;0.00;0.00;;;;;;;20.24;100.00;98813.50;7393414;19;20014;-78
2023/07/01 11:24:32;;;;;;;0.10;0.00;;;;;;;19.88;100.00;98816.50;7392192;19;20011;-78
2023/07/01 11:27:09;;;;;;;0.10;0.00;;;;;;;19.53;100.00;98815.31;7392377;19;20047;-78
2023/07/01 11:29:37;;;;;;;0.20;0.00;;;;;;;19.54;100.00;98821.75;7391481;19;20032;-78